Аэропорт: Львов имени Даниила Галицкого. Львов

ICAO: UKLL

METAR:
2019-07-23 18:30:00
UKLL 231830Z 27001MPS CAVOK 16/14 Q1018 R31/CLRD// NOSIG
METAR:
2019-07-23 17:02:00
TAF UKLL 231702Z 2318/2418 29005MPS 9999 BKN025 TEMPO 2321/2406 27003MPS 2100 BR SCT004 BKN007 BECMG 2406/2408 33004MPS TEMPO 2408/2418 30006G11MPS 3000 -SHRA BKN010 BKN020CB